Terminal Aerodrome Forecast
Issued by NWS

Home | Current Version | Previous Version | Text Only | Print | Product List | Glossary On
Versions: 1 2 3 4 5 6 7 8 9 10 11 12 13 14 15
000
FTUS45 KRIW 271100
TAFRKS
TAF
KRKS 271120Z 2712/2812 09010KT P6SM SCT018 OVC030
     FM271800 20005KT P6SM SCT030
     FM280000 20006KT P6SM FEW050 BKN080
     FM281000 07010KT P6SM BKN050=

USA.gov is the U.S. government's official web portal to all federal, state and local government web resources and services.